Time;durP1;ratioP1;P1;durP2;ratioP2;P2;SDS_P1;SDS_P2;PMS_P1;PMS_P2;Temp;Humidity;BMP_temperature;BMP_pressure;BME280_temperature;BME280_humidity;BME280_pressure;Samples;Min_cycle;Max_cycle;Signal;HPM_P1;HPM_P2
2023/06/15 00:01:14;;;;;;;4.30;4.00;;;;;;;18.14;61.01;100932.06;5037258;28;20720;-78
2023/06/15 00:03:42;;;;;;;5.00;4.50;;;;;;;18.12;61.47;100925.97;5038081;28;20340;-78
2023/06/15 00:06:09;;;;;;;5.03;4.63;;;;;;;18.09;61.13;100928.75;5036922;28;20260;-79
2023/06/15 00:08:35;;;;;;;4.60;4.23;;;;;;;17.96;61.93;100925.78;5038069;28;20214;-78
2023/06/15 00:11:01;;;;;;;4.60;4.00;;;;;;;17.96;61.80;100917.84;5035921;28;20226;-78
2023/06/15 00:13:30;;;;;;;5.17;4.67;;;;;;;17.97;61.46;100916.06;5037467;28;20233;-80
2023/06/15 00:15:57;;;;;;;4.10;3.80;;;;;;;17.99;61.08;100919.50;5036963;28;20290;-80
2023/06/15 00:18:23;;;;;;;5.33;4.50;;;;;;;17.98;60.90;100934.50;5037586;28;20210;-80
2023/06/15 00:20:50;;;;;;;4.13;3.73;;;;;;;17.95;61.03;100939.03;5038985;28;20276;-79
2023/06/15 00:23:17;;;;;;;5.63;4.40;;;;;;;17.92;61.08;100944.44;5038266;28;20210;-79
2023/06/15 00:25:44;;;;;;;4.80;4.40;;;;;;;17.84;61.72;100932.41;5038556;28;20633;-79
2023/06/15 00:28:10;;;;;;;4.37;3.97;;;;;;;17.76;62.39;100923.03;5037628;28;20228;-79
2023/06/15 00:30:38;;;;;;;5.43;4.80;;;;;;;17.72;62.72;100909.13;5037125;28;20296;-78
2023/06/15 00:33:04;;;;;;;4.53;3.97;;;;;;;17.69;62.57;100908.41;5041658;28;20210;-79
2023/06/15 00:35:31;;;;;;;4.50;4.10;;;;;;;17.66;62.12;100909.38;5037302;28;20234;-79
2023/06/15 00:37:58;;;;;;;4.20;3.80;;;;;;;17.57;62.09;100912.41;5038168;28;20702;-79
2023/06/15 00:40:24;;;;;;;7.07;4.13;;;;;;;17.54;62.78;100907.22;5038709;28;20577;-79
2023/06/15 00:42:51;;;;;;;5.87;4.27;;;;;;;17.56;63.62;100889.53;5038145;28;20226;-79
2023/06/15 00:45:17;;;;;;;4.83;4.37;;;;;;;17.49;64.04;100877.53;5038102;28;20206;-79
2023/06/15 00:47:46;;;;;;;5.13;4.73;;;;;;;17.40;64.80;100853.25;5038598;28;20244;-79
2023/06/15 00:50:15;;;;;;;4.30;3.90;;;;;;;17.40;64.35;100837.41;5037778;28;20222;-78
2023/06/15 00:52:41;;;;;;;5.40;4.30;;;;;;;17.40;63.95;100845.31;5038400;28;20705;-79
2023/06/15 00:55:11;;;;;;;3.97;3.63;;;;;;;17.45;63.61;100858.31;5037879;28;20237;-79
2023/06/15 00:57:43;;;;;;;4.63;4.03;;;;;;;17.43;63.72;100861.00;5038670;28;20217;-79
2023/06/15 01:00:11;;;;;;;5.43;4.07;;;;;;;17.46;63.12;100862.66;5037914;28;20237;-79
2023/06/15 01:02:40;;;;;;;3.67;3.37;;;;;;;17.44;63.69;100872.41;5038421;28;20210;-79
2023/06/15 01:05:10;;;;;;;4.37;3.83;;;;;;;17.47;63.67;100869.66;5038016;28;20198;-78
2023/06/15 01:07:40;;;;;;;4.80;4.27;;;;;;;17.47;63.21;100870.53;5038149;28;20310;-79
2023/06/15 01:10:08;;;;;;;4.13;3.77;;;;;;;17.40;63.33;100874.34;5038067;28;20230;-79
2023/06/15 01:12:40;;;;;;;4.80;3.23;;;;;;;17.38;63.72;100868.28;5040457;28;20210;-79
2023/06/15 01:15:07;;;;;;;6.47;4.37;;;;;;;17.37;63.74;100876.25;5042158;28;20222;-79
2023/06/15 01:17:34;;;;;;;4.13;3.83;;;;;;;17.33;63.99;100866.75;5041234;28;20576;-79
2023/06/15 01:20:09;;;;;;;4.20;3.80;;;;;;;17.27;63.81;100863.41;5040429;28;20719;-79
2023/06/15 01:22:49;;;;;;;4.10;3.70;;;;;;;17.21;63.72;100868.09;5041872;28;20199;-79
2023/06/15 01:25:26;;;;;;;6.37;3.80;;;;;;;17.24;63.26;100873.22;5042166;28;20206;-79
2023/06/15 01:27:58;;;;;;;4.80;3.57;;;;;;;17.19;64.06;100867.28;5042509;28;20234;-79
2023/06/15 01:30:26;;;;;;;4.00;3.60;;;;;;;17.03;64.64;100857.34;5040937;28;20226;-79
2023/06/15 01:32:52;;;;;;;4.30;3.90;;;;;;;17.06;64.21;100844.00;5041951;28;20216;-79
2023/06/15 01:35:19;;;;;;;4.23;3.80;;;;;;;17.05;63.74;100852.00;5041932;28;20225;-78
2023/06/15 01:37:45;;;;;;;4.70;4.17;;;;;;;17.01;63.94;100863.59;5042118;28;20210;-79
2023/06/15 01:40:13;;;;;;;4.80;4.30;;;;;;;16.96;63.66;100882.22;5041342;28;20226;-79
2023/06/15 01:42:40;;;;;;;4.37;4.03;;;;;;;16.92;63.62;100877.13;5042194;28;20260;-79
2023/06/15 01:45:11;;;;;;;3.87;3.53;;;;;;;16.83;63.37;100871.28;5040923;28;20206;-79
2023/06/15 01:47:39;;;;;;;3.97;3.70;;;;;;;16.80;63.52;100886.31;5040739;28;20214;-79
2023/06/15 01:50:07;;;;;;;3.93;3.50;;;;;;;16.82;63.24;100880.09;5041056;28;20222;-78
2023/06/15 01:52:34;;;;;;;4.00;3.60;;;;;;;16.75;62.96;100888.25;5040531;28;20260;-79
2023/06/15 01:55:01;;;;;;;3.93;3.63;;;;;;;16.77;62.13;100908.41;5040698;28;20234;-79
2023/06/15 01:57:27;;;;;;;4.00;3.70;;;;;;;16.80;60.70;100942.56;5041029;28;20209;-78
2023/06/15 01:59:54;;;;;;;3.90;3.60;;;;;;;16.74;60.11;100965.66;5040244;28;20226;-79
2023/06/15 02:02:22;;;;;;;4.37;3.97;;;;;;;16.67;59.02;100996.66;5039193;28;20212;-79
2023/06/15 02:04:50;;;;;;;4.03;3.13;;;;;;;16.72;59.13;101018.44;5039757;28;20214;-79
2023/06/15 02:07:17;;;;;;;4.03;3.47;;;;;;;16.71;60.50;101016.72;5039200;28;20667;-79
2023/06/15 02:09:43;;;;;;;3.70;3.40;;;;;;;16.73;61.15;100990.28;5040536;28;20601;-79
2023/06/15 02:12:10;;;;;;;4.00;3.40;;;;;;;16.61;61.74;100975.75;5039838;28;20206;-79
2023/06/15 02:14:37;;;;;;;5.43;3.90;;;;;;;16.45;61.62;100963.16;5038743;28;20210;-79
2023/06/15 02:17:03;;;;;;;5.40;4.07;;;;;;;16.40;62.08;100956.31;5038343;28;20206;-79
2023/06/15 02:19:31;;;;;;;7.43;3.60;;;;;;;16.38;62.22;100934.44;5039833;28;20252;-79
2023/06/15 02:22:03;;;;;;;3.77;3.50;;;;;;;16.34;62.53;100935.44;5038992;28;20218;-79
2023/06/15 02:24:31;;;;;;;3.33;3.13;;;;;;;16.37;61.89;100933.56;5039134;28;20248;-79
2023/06/15 02:26:57;;;;;;;4.10;3.80;;;;;;;16.33;61.57;100944.25;5039796;28;20234;-79
2023/06/15 02:29:24;;;;;;;4.93;3.70;;;;;;;16.18;62.43;100948.28;5039946;28;20206;-79
2023/06/15 02:31:50;;;;;;;4.00;3.70;;;;;;;16.13;62.25;100939.66;5039906;28;20279;-79
2023/06/15 02:34:16;;;;;;;3.70;3.50;;;;;;;16.11;62.22;100944.97;5038864;28;20466;-79
2023/06/15 02:36:46;;;;;;;4.10;3.70;;;;;;;16.13;62.27;100940.53;5039453;28;20230;-79
2023/06/15 02:39:13;;;;;;;5.43;3.50;;;;;;;16.12;62.34;100938.81;5038497;28;20206;-79
2023/06/15 02:41:39;;;;;;;5.40;3.30;;;;;;;16.16;62.55;100931.69;5038602;28;20555;-79
2023/06/15 02:44:07;;;;;;;5.07;3.97;;;;;;;16.09;63.06;100925.75;5038521;28;20264;-79
2023/06/15 02:46:33;;;;;;;4.87;3.63;;;;;;;16.04;62.50;100927.69;5039104;28;20202;-79
2023/06/15 02:49:02;;;;;;;5.10;4.03;;;;;;;15.86;62.56;100943.19;5038647;28;20202;-78
2023/06/15 02:51:28;;;;;;;5.80;4.13;;;;;;;15.66;62.94;100938.53;5038506;28;20226;-79
2023/06/15 02:53:56;;;;;;;4.30;3.90;;;;;;;15.71;63.67;100922.59;5038264;28;20248;-79
2023/06/15 02:56:22;;;;;;;4.03;3.67;;;;;;;15.74;63.96;100909.38;5038632;28;20288;-78
2023/06/15 02:58:54;;;;;;;4.33;3.90;;;;;;;15.82;63.67;100895.97;5038528;28;20202;-79
2023/06/15 03:01:21;;;;;;;4.03;3.70;;;;;;;15.82;64.65;100893.31;5009423;28;1009854;-79
2023/06/15 03:03:49;;;;;;;4.73;4.37;;;;;;;15.78;66.18;100860.13;5041617;28;20210;-79
2023/06/15 03:06:16;;;;;;;4.97;4.30;;;;;;;15.82;67.09;100825.72;5038728;28;20202;-79
2023/06/15 03:08:44;;;;;;;4.93;4.40;;;;;;;15.72;68.24;100776.94;5039784;28;20202;-79
2023/06/15 03:11:15;;;;;;;5.37;4.87;;;;;;;15.64;69.08;100747.38;5039309;28;20232;-79
2023/06/15 03:13:43;;;;;;;5.53;4.13;;;;;;;15.42;69.77;100708.66;5038249;28;20211;-79
2023/06/15 03:16:09;;;;;;;8.83;4.63;;;;;;;15.56;69.10;100702.91;5038684;28;20234;-79
2023/06/15 03:18:35;;;;;;;3.80;3.40;;;;;;;15.56;68.81;100715.19;5038657;28;20210;-79
2023/06/15 03:21:02;;;;;;;5.40;4.00;;;;;;;15.63;67.64;100725.44;5038736;28;20226;-78
2023/06/15 03:23:28;;;;;;;4.33;3.83;;;;;;;15.58;67.92;100758.09;5038041;28;20256;-79
2023/06/15 03:25:55;;;;;;;4.37;3.97;;;;;;;15.59;67.52;100759.84;5037466;28;20202;-79
2023/06/15 03:28:24;;;;;;;4.13;3.73;;;;;;;15.54;67.53;100777.53;5037739;28;20208;-79
2023/06/15 03:30:53;;;;;;;3.90;3.60;;;;;;;15.48;67.58;100783.91;5038414;28;20233;-79
2023/06/15 03:33:22;;;;;;;4.03;3.67;;;;;;;15.41;67.32;100788.47;5037887;28;20569;-79
2023/06/15 03:35:49;;;;;;;4.13;3.83;;;;;;;15.42;67.76;100786.69;5036959;28;20248;-79
2023/06/15 03:38:16;;;;;;;4.13;3.83;;;;;;;15.54;67.24;100796.84;5029506;28;20362;-79
2023/06/15 03:40:43;;;;;;;3.67;3.47;;;;;;;15.55;67.17;100792.44;5037698;28;20226;-79
2023/06/15 03:43:09;;;;;;;4.67;3.73;;;;;;;15.49;67.58;100804.88;5038488;28;20213;-79
2023/06/15 03:45:37;;;;;;;4.83;3.77;;;;;;;15.52;68.14;100800.41;5038236;28;20202;-79
2023/06/15 03:48:04;;;;;;;4.70;4.10;;;;;;;15.64;67.50;100794.75;5038679;28;20206;-79
2023/06/15 03:50:32;;;;;;;4.20;3.90;;;;;;;15.58;67.89;100798.44;5038514;28;20231;-79
2023/06/15 03:53:02;;;;;;;4.20;3.90;;;;;;;15.57;68.18;100785.34;5037989;28;20206;-79
2023/06/15 03:55:29;;;;;;;4.43;4.13;;;;;;;15.63;67.59;100795.66;5038191;28;20596;-79
2023/06/15 03:57:55;;;;;;;4.33;4.03;;;;;;;15.72;67.08;100803.25;5037258;28;20268;-79
2023/06/15 04:00:22;;;;;;;4.07;3.67;;;;;;;15.74;67.67;100811.09;5041128;28;20241;-79
2023/06/15 04:02:49;;;;;;;6.07;4.63;;;;;;;15.69;68.11;100803.34;5051721;28;20236;-78
2023/06/15 04:05:16;;;;;;;6.33;4.60;;;;;;;15.77;67.61;100796.06;5053417;28;20236;-78
2023/06/15 04:07:42;;;;;;;4.60;4.20;;;;;;;15.79;67.60;100806.53;5053694;28;20235;-78
2023/06/15 04:10:09;;;;;;;4.60;4.17;;;;;;;15.90;67.55;100807.03;5049358;28;20230;-79
2023/06/15 04:12:36;;;;;;;4.63;4.00;;;;;;;15.96;67.61;100814.72;5038884;28;20276;-79
2023/06/15 04:15:02;;;;;;;4.30;4.00;;;;;;;15.93;67.88;100820.06;5039130;28;20202;-79
2023/06/15 04:17:28;;;;;;;4.37;3.97;;;;;;;16.02;67.53;100816.28;5039124;28;20229;-79
2023/06/15 04:19:57;;;;;;;5.17;4.47;;;;;;;15.94;68.59;100821.81;5039313;28;20712;-79
2023/06/15 04:22:25;;;;;;;4.27;3.93;;;;;;;15.85;69.12;100803.69;5038743;28;20206;-79
2023/06/15 04:24:51;;;;;;;4.23;3.93;;;;;;;15.74;69.61;100784.78;5038609;28;20206;-78
2023/06/15 04:27:19;;;;;;;4.37;3.97;;;;;;;15.83;69.42;100777.41;5037835;28;20289;-78
2023/06/15 04:29:49;;;;;;;4.03;3.73;;;;;;;15.83;69.45;100779.19;5034864;28;20236;-79
2023/06/15 04:32:17;;;;;;;5.17;4.63;;;;;;;15.88;68.66;100791.28;5038096;28;20210;-78
2023/06/15 04:34:45;;;;;;;3.73;3.43;;;;;;;15.84;69.22;100799.34;5039251;28;20210;-79
2023/06/15 04:37:13;;;;;;;4.83;4.43;;;;;;;15.88;69.52;100787.81;5038002;28;20233;-79
2023/06/15 04:39:39;;;;;;;4.00;3.70;;;;;;;15.94;69.77;100787.59;5038293;28;20724;-79
2023/06/15 04:42:08;;;;;;;4.93;4.30;;;;;;;15.99;69.15;100779.50;5039513;28;20202;-79
2023/06/15 04:44:35;;;;;;;4.87;4.27;;;;;;;16.05;69.47;100789.81;5038214;28;20214;-79
2023/06/15 04:47:03;;;;;;;5.13;4.73;;;;;;;16.15;69.45;100787.72;5040461;28;20672;-79
2023/06/15 04:49:30;;;;;;;5.67;5.13;;;;;;;15.74;71.65;100763.72;5042358;28;20213;-79
2023/06/15 04:51:56;;;;;;;5.50;5.00;;;;;;;15.86;71.77;100735.19;5042795;28;20206;-79
2023/06/15 04:54:25;;;;;;;5.33;4.90;;;;;;;15.98;71.58;100720.72;5042043;28;20198;-79
2023/06/15 04:56:51;;;;;;;5.13;4.73;;;;;;;16.07;71.62;100725.66;5041881;28;20226;-79
2023/06/15 04:59:18;;;;;;;5.63;5.13;;;;;;;16.16;71.65;100723.59;5042424;28;20206;-79
2023/06/15 05:01:44;;;;;;;6.40;6.00;;;;;;;16.12;71.29;100727.28;5064075;23;20233;-81
2023/06/15 05:04:10;;;;;;;6.20;5.60;;;;;;;16.22;70.66;100731.28;5046579;28;20218;-81
2023/06/15 05:06:37;;;;;;;6.80;6.30;;;;;;;16.17;70.59;100754.28;5039526;28;20293;-82
2023/06/15 05:09:03;;;;;;;6.37;5.90;;;;;;;16.13;70.46;100764.06;5039520;28;20213;-81
2023/06/15 05:11:31;;;;;;;6.57;6.07;;;;;;;16.18;69.92;100779.72;5040933;28;20226;-80
2023/06/15 05:13:57;;;;;;;6.20;5.57;;;;;;;16.30;69.38;100795.06;5039714;28;20202;-82
2023/06/15 05:16:24;;;;;;;6.20;5.80;;;;;;;16.43;68.99;100804.25;5040365;28;20236;-82
2023/06/15 05:18:52;;;;;;;5.90;5.50;;;;;;;16.56;69.28;100811.66;5041218;28;20206;-83
2023/06/15 05:21:19;;;;;;;5.87;5.50;;;;;;;16.59;68.59;100827.34;5040919;28;20222;-82
2023/06/15 05:23:45;;;;;;;5.77;5.37;;;;;;;16.60;65.72;100864.19;5042787;28;20558;-82
2023/06/15 05:26:12;;;;;;;5.60;5.10;;;;;;;16.66;66.31;100897.38;5044731;28;20658;-81
2023/06/15 05:28:40;;;;;;;7.57;5.03;;;;;;;16.66;68.42;100890.34;5052316;28;20652;-84
2023/06/15 05:31:08;;;;;;;5.97;5.47;;;;;;;16.71;68.88;100868.22;5062520;28;20563;-83
2023/06/15 05:33:34;;;;;;;6.97;6.33;;;;;;;16.42;70.06;100856.97;5062814;28;20220;-82
2023/06/15 05:36:01;;;;;;;6.07;5.57;;;;;;;16.30;70.53;100813.50;5062837;28;20225;-83
2023/06/15 05:38:27;;;;;;;6.60;5.10;;;;;;;16.48;69.87;100801.41;5062338;28;20676;-83
2023/06/15 05:40:53;;;;;;;6.50;5.90;;;;;;;16.45;69.97;100812.94;5062526;28;20279;-83
2023/06/15 05:43:20;;;;;;;6.57;6.07;;;;;;;16.40;70.65;100795.59;5062179;28;20851;-83
2023/06/15 05:45:48;;;;;;;6.40;5.80;;;;;;;16.57;70.97;100785.25;5061969;28;20296;-83
2023/06/15 05:48:14;;;;;;;6.83;6.23;;;;;;;16.64;70.34;100792.00;5063261;28;20296;-83
2023/06/15 05:50:41;;;;;;;6.50;6.00;;;;;;;16.76;69.33;100805.63;5061932;28;20226;-83
2023/06/15 05:53:07;;;;;;;6.87;6.17;;;;;;;16.85;68.38;100832.53;5061742;28;20663;-83
2023/06/15 05:55:34;;;;;;;6.43;5.83;;;;;;;16.94;68.21;100855.03;5061583;28;20213;-81
2023/06/15 05:58:00;;;;;;;5.30;4.90;;;;;;;17.03;67.87;100875.81;5061231;28;20655;-82
2023/06/15 06:00:30;;;;;;;6.37;5.43;;;;;;;17.09;66.97;100902.88;5061848;28;20271;-83
2023/06/15 06:02:57;;;;;;;5.87;5.37;;;;;;;17.14;66.93;100916.72;5061955;28;20210;-83
2023/06/15 06:05:24;;;;;;;7.07;6.33;;;;;;;17.15;66.86;100927.22;5061621;28;20213;-83
2023/06/15 06:07:50;;;;;;;6.17;5.43;;;;;;;16.95;67.85;100911.31;5062557;28;20201;-83
2023/06/15 06:10:18;;;;;;;6.43;5.93;;;;;;;17.10;67.91;100910.69;5062245;28;20562;-82
2023/06/15 06:12:44;;;;;;;6.03;5.47;;;;;;;17.06;67.55;100917.00;5059442;28;20233;-81
2023/06/15 06:15:11;;;;;;;7.03;6.13;;;;;;;17.07;67.21;100913.47;5060168;28;20205;-81
2023/06/15 06:17:37;;;;;;;5.13;4.63;;;;;;;17.22;66.13;100931.34;5060307;28;20229;-79
2023/06/15 06:20:06;;;;;;;4.80;4.40;;;;;;;17.32;64.53;100960.00;5060634;28;20218;-81
2023/06/15 06:22:32;;;;;;;4.77;4.10;;;;;;;17.42;63.47;100993.91;5059128;28;20287;-80
2023/06/15 06:24:58;;;;;;;5.43;4.77;;;;;;;17.54;62.60;101026.91;5059140;28;20209;-81
2023/06/15 06:27:25;;;;;;;5.97;5.47;;;;;;;17.53;61.14;101069.19;5059311;28;20213;-82
2023/06/15 06:29:51;;;;;;;5.90;5.40;;;;;;;17.61;62.99;101089.09;5058776;28;20201;-81
2023/06/15 06:32:18;;;;;;;5.83;5.00;;;;;;;17.69;61.45;101093.22;5037825;28;20250;-79
2023/06/15 06:34:44;;;;;;;5.33;4.83;;;;;;;17.70;62.21;101095.81;5037899;28;20218;-79
2023/06/15 06:37:12;;;;;;;8.20;5.10;;;;;;;17.72;62.31;101101.00;5045990;28;20743;-80
2023/06/15 06:39:38;;;;;;;5.20;4.70;;;;;;;17.75;61.98;101099.13;5042391;28;20248;-82
2023/06/15 06:42:06;;;;;;;5.10;4.70;;;;;;;17.69;62.08;101107.28;5039067;28;20349;-79
2023/06/15 06:44:32;;;;;;;4.67;4.27;;;;;;;17.79;62.66;101092.78;5038947;28;20210;-81
2023/06/15 06:47:00;;;;;;;6.17;4.97;;;;;;;17.88;61.13;101102.19;5039825;28;20207;-82
2023/06/15 06:49:26;;;;;;;12.43;4.50;;;;;;;17.67;58.96;101152.22;5040694;28;20331;-81
2023/06/15 06:51:53;;;;;;;4.83;4.43;;;;;;;17.72;60.26;101159.97;5039558;28;20230;-80
2023/06/15 06:54:20;;;;;;;4.60;4.07;;;;;;;17.93;61.13;101145.13;5040718;28;20210;-81
2023/06/15 06:56:47;;;;;;;6.00;4.57;;;;;;;18.04;60.06;101142.94;5039697;28;20264;-81
2023/06/15 06:59:13;;;;;;;4.40;4.00;;;;;;;18.16;59.27;101161.88;5049178;28;20288;-80
2023/06/15 07:01:40;;;;;;;6.13;4.67;;;;;;;18.24;58.83;101188.88;5054635;28;20264;-80
2023/06/15 07:04:06;;;;;;;4.50;4.20;;;;;;;18.35;58.80;101193.72;5062695;28;20201;-80
2023/06/15 07:06:34;;;;;;;4.30;3.97;;;;;;;18.42;57.81;101204.00;5074779;28;20205;-80
2023/06/15 07:09:00;;;;;;;8.63;4.33;;;;;;;18.50;57.75;101231.94;5075067;28;20212;-79
2023/06/15 07:11:28;;;;;;;5.33;4.30;;;;;;;18.56;58.31;101231.69;5075001;28;20282;-79
2023/06/15 07:14:00;;;;;;;4.50;3.83;;;;;;;18.54;58.61;101220.31;5076613;28;20235;-81
2023/06/15 07:16:38;;;;;;;4.50;3.77;;;;;;;18.54;57.89;101231.75;5076670;28;20212;-82
2023/06/15 07:19:04;;;;;;;5.47;3.40;;;;;;;18.62;56.63;101252.59;5076494;28;20217;-81
2023/06/15 07:21:32;;;;;;;5.13;3.67;;;;;;;18.65;56.34;101273.63;5075904;28;20602;-81
2023/06/15 07:24:48;;;;;;;4.70;4.10;;;;;;;18.81;55.40;101273.91;5075158;28;20698;-82
2023/06/15 07:27:18;;;;;;;3.97;3.67;;;;;;;18.88;53.69;101319.50;5058163;28;20682;-82
2023/06/15 07:29:44;;;;;;;3.83;3.43;;;;;;;18.89;53.85;101347.66;5059674;28;20618;-80
2023/06/15 07:32:11;;;;;;;3.83;3.53;;;;;;;18.96;53.04;101365.91;5055456;28;20222;-82
2023/06/15 07:34:47;;;;;;;4.17;3.03;;;;;;;18.94;51.98;101388.06;5057690;28;20201;-81
2023/06/15 07:37:14;;;;;;;3.83;3.40;;;;;;;19.02;52.98;101405.34;5054328;28;20290;-80
2023/06/15 07:39:40;;;;;;;4.87;3.07;;;;;;;19.09;50.86;101418.34;5056854;28;20206;-82
2023/06/15 07:42:07;;;;;;;5.60;3.13;;;;;;;19.08;52.04;101451.03;5056347;28;20416;-82
2023/06/15 07:44:36;;;;;;;5.43;3.30;;;;;;;19.09;50.74;101458.03;5056690;28;20279;-82
2023/06/15 07:47:02;;;;;;;2.97;2.70;;;;;;;19.08;50.56;101482.78;5056291;28;20202;-83
2023/06/15 07:49:29;;;;;;;3.17;2.87;;;;;;;19.20;50.67;101488.47;5060581;28;20201;-81
2023/06/15 07:51:55;;;;;;;3.87;2.90;;;;;;;19.17;48.82;101514.22;5064901;28;20226;-79
2023/06/15 07:54:26;;;;;;;4.30;2.97;;;;;;;19.21;49.89;101532.56;5064269;28;20213;-79
2023/06/15 07:56:53;;;;;;;4.80;3.20;;;;;;;19.21;50.01;101556.38;5058508;28;20221;-82
2023/06/15 07:59:19;;;;;;;2.93;2.73;;;;;;;19.17;50.49;101535.41;5055597;28;20202;-79
2023/06/15 08:01:47;;;;;;;3.03;2.83;;;;;;;19.18;50.08;101534.47;5055490;28;20291;-81
2023/06/15 08:04:27;;;;;;;3.53;2.57;;;;;;;19.35;49.87;101510.00;5055351;28;20219;-80
2023/06/15 08:07:04;;;;;;;3.80;3.03;;;;;;;19.42;48.58;101527.38;5055681;28;20208;-79
2023/06/15 08:09:40;;;;;;;3.20;2.57;;;;;;;19.56;48.32;101542.72;5054988;28;20201;-79
2023/06/15 08:12:10;;;;;;;3.40;3.07;;;;;;;19.50;47.10;101580.88;5054113;28;20307;-77
2023/06/15 08:15:04;;;;;;;3.50;3.20;;;;;;;19.58;48.33;101589.44;5054629;28;20213;-81
2023/06/15 08:17:31;;;;;;;4.47;2.73;;;;;;;19.65;48.81;101566.22;5045971;28;20798;-80
2023/06/15 08:19:58;;;;;;;3.07;2.87;;;;;;;19.64;51.52;101540.63;5053757;28;20205;-79
2023/06/15 08:22:24;;;;;;;4.07;3.17;;;;;;;19.76;50.41;101494.28;5052323;28;20237;-80
2023/06/15 08:24:50;;;;;;;3.67;3.33;;;;;;;19.87;48.16;101493.84;5054702;28;20296;-80
2023/06/15 08:27:17;;;;;;;3.07;2.77;;;;;;;19.92;48.67;101531.63;5057147;28;20201;-82
2023/06/15 08:29:44;;;;;;;3.13;2.83;;;;;;;19.92;47.71;101543.09;5058947;28;20214;-79
2023/06/15 08:32:19;;;;;;;3.03;2.83;;;;;;;19.96;47.08;101552.66;5056062;28;20249;-81
2023/06/15 08:34:47;;;;;;;6.60;3.97;;;;;;;19.97;48.02;101575.56;5055647;28;20567;-81
2023/06/15 08:37:14;;;;;;;3.23;3.03;;;;;;;20.08;47.23;101561.91;5054688;28;20225;-79
2023/06/15 08:39:41;;;;;;;2.67;2.47;;;;;;;20.21;47.27;101583.44;5055337;28;20263;-80
2023/06/15 08:42:08;;;;;;;2.93;2.63;;;;;;;20.29;44.86;101597.25;5057101;28;20251;-83
2023/06/15 08:44:35;;;;;;;4.67;2.87;;;;;;;20.28;46.68;101656.53;5055203;28;20592;-82
2023/06/15 08:47:03;;;;;;;4.00;2.93;;;;;;;20.38;46.71;101649.94;5054732;28;20201;-79
2023/06/15 08:49:31;;;;;;;2.80;2.60;;;;;;;20.50;46.22;101637.09;5055543;28;20300;-81
2023/06/15 08:52:02;;;;;;;9.27;2.70;;;;;;;20.55;45.92;101656.31;5055117;28;20259;-81
2023/06/15 08:54:31;;;;;;;4.03;2.87;;;;;;;20.63;44.95;101639.22;5055227;28;20284;-81
2023/06/15 08:56:58;;;;;;;2.80;2.60;;;;;;;20.65;45.10;101670.97;5056236;28;20216;-82
2023/06/15 08:59:25;;;;;;;5.57;2.77;;;;;;;20.68;45.98;101664.69;5056043;28;20206;-82
2023/06/15 09:01:54;;;;;;;3.20;2.83;;;;;;;20.76;45.04;101667.88;5056124;28;20237;-83
2023/06/15 09:04:20;;;;;;;2.90;2.70;;;;;;;20.83;44.16;101688.78;5056554;28;20205;-82
2023/06/15 09:06:47;;;;;;;2.80;2.60;;;;;;;20.91;43.26;101696.44;5057104;28;20244;-80
2023/06/15 09:09:14;;;;;;;5.73;2.40;;;;;;;20.94;43.13;101751.19;5057946;28;20736;-81
2023/06/15 09:11:44;;;;;;;2.97;2.70;;;;;;;20.94;43.13;101759.16;5056753;28;20233;-80
2023/06/15 09:14:14;;;;;;;3.07;2.50;;;;;;;20.97;44.29;101759.00;5057118;28;20366;-80
2023/06/15 09:16:42;;;;;;;5.17;2.93;;;;;;;20.94;43.33;101749.38;5056745;28;20268;-81
2023/06/15 09:19:11;;;;;;;4.50;3.27;;;;;;;20.98;43.84;101729.75;5057117;28;20226;-82
2023/06/15 09:21:49;;;;;;;3.73;2.67;;;;;;;21.00;44.81;101730.53;5057264;28;20230;-83
2023/06/15 09:24:17;;;;;;;4.03;2.63;;;;;;;21.07;44.54;101715.22;5057166;28;20217;-83
2023/06/15 09:26:45;;;;;;;3.77;3.03;;;;;;;21.12;44.36;101686.66;5055874;28;20510;-82
2023/06/15 09:29:12;;;;;;;7.57;3.10;;;;;;;21.18;45.24;101688.19;5056734;28;20206;-83
2023/06/15 09:31:40;;;;;;;5.20;2.93;;;;;;;21.22;44.41;101671.19;5055700;28;20647;-83
2023/06/15 09:34:08;;;;;;;3.30;3.00;;;;;;;21.33;44.43;101653.00;5059937;28;20201;-84
2023/06/15 09:36:38;;;;;;;4.77;3.00;;;;;;;21.46;44.72;101668.44;5062082;28;20394;-83
2023/06/15 09:39:05;;;;;;;4.73;2.80;;;;;;;21.53;44.24;101672.53;5060823;28;20251;-83
2023/06/15 09:41:34;;;;;;;4.40;2.40;;;;;;;21.66;42.16;101686.13;5060144;28;20232;-82
2023/06/15 09:44:03;;;;;;;3.30;2.40;;;;;;;21.69;41.88;101747.97;5058743;28;20297;-83
2023/06/15 09:46:31;;;;;;;2.67;2.47;;;;;;;21.74;42.56;101761.06;5057948;28;20259;-82
2023/06/15 09:48:57;;;;;;;2.87;2.57;;;;;;;21.86;41.54;101764.97;5059948;28;20220;-83
2023/06/15 09:51:28;;;;;;;3.60;2.60;;;;;;;21.90;39.43;101806.41;5059179;28;20225;-83
2023/06/15 09:53:56;;;;;;;2.90;2.60;;;;;;;21.75;40.13;101871.78;5059650;28;20301;-84
2023/06/15 09:56:23;;;;;;;4.77;3.27;;;;;;;21.84;41.18;101865.19;5059759;28;20201;-83
2023/06/15 09:58:50;;;;;;;3.30;2.40;;;;;;;21.79;40.82;101841.47;5059603;28;20286;-83
2023/06/15 10:01:19;;;;;;;3.27;2.47;;;;;;;21.86;41.96;101826.09;5050665;28;20767;-84
2023/06/15 10:03:53;;;;;;;3.40;2.90;;;;;;;21.97;41.87;101799.91;5058810;28;20202;-83
2023/06/15 10:06:20;;;;;;;3.63;2.40;;;;;;;22.06;40.92;101801.28;5059622;28;20675;-84
2023/06/15 10:08:51;;;;;;;12.00;3.00;;;;;;;22.17;39.97;101828.25;5058857;28;20625;-83
2023/06/15 10:11:19;;;;;;;3.30;2.30;;;;;;;22.26;38.96;101851.81;5059387;28;20264;-84
2023/06/15 10:13:53;;;;;;;4.00;2.80;;;;;;;22.32;37.90;101898.53;5058620;28;20591;-83
2023/06/15 10:16:21;;;;;;;3.73;2.57;;;;;;;22.41;38.93;101891.00;5059166;28;20276;-83
2023/06/15 10:18:53;;;;;;;4.43;2.60;;;;;;;22.49;40.05;101882.69;5058978;28;20316;-84
2023/06/15 10:21:23;;;;;;;3.00;2.63;;;;;;;22.56;37.80;101873.50;5058467;28;20225;-82
2023/06/15 10:23:54;;;;;;;3.27;2.83;;;;;;;22.56;37.80;101920.53;5058735;28;20205;-82
2023/06/15 10:26:21;;;;;;;4.23;2.47;;;;;;;22.71;40.31;101890.53;5061997;28;20272;-81
2023/06/15 10:28:56;;;;;;;3.80;2.83;;;;;;;22.78;39.23;101853.84;5059328;28;20253;-82
2023/06/15 10:31:30;;;;;;;6.60;2.53;;;;;;;22.85;38.92;101873.91;5055458;28;20221;-81
2023/06/15 10:34:03;;;;;;;5.07;2.90;;;;;;;22.98;38.98;101834.25;5055351;28;20201;-81
2023/06/15 10:36:30;;;;;;;4.13;2.80;;;;;;;23.12;38.43;101865.56;5057169;28;20271;-81
2023/06/15 10:39:03;;;;;;;4.50;2.77;;;;;;;23.26;38.31;101859.56;5057652;28;20230;-80
2023/06/15 10:41:30;;;;;;;3.00;2.80;;;;;;;23.24;38.26;101858.78;5057441;28;20217;-82
2023/06/15 10:43:59;;;;;;;7.00;2.50;;;;;;;23.12;37.32;101909.03;5057660;28;20222;-81
2023/06/15 10:46:30;;;;;;;8.50;3.10;;;;;;;23.22;36.44;101929.94;5058514;28;20209;-81
2023/06/15 10:49:03;;;;;;;4.17;3.07;;;;;;;23.33;38.75;101904.47;5058537;28;20264;-83
2023/06/15 10:51:31;;;;;;;2.87;2.67;;;;;;;23.53;38.40;101910.63;5054409;23;20237;-75
2023/06/15 10:53:59;;;;;;;3.60;3.30;;;;;;;23.72;37.74;101902.56;5032512;28;20633;-75
2023/06/15 10:56:27;;;;;;;4.87;3.10;;;;;;;23.78;36.80;101908.47;5032965;28;20210;-75
2023/06/15 10:58:55;;;;;;;4.33;2.80;;;;;;;23.96;37.63;101888.00;5032686;28;20230;-75
2023/06/15 11:01:24;;;;;;;2.93;2.63;;;;;;;24.11;38.49;101898.81;5031057;28;20564;-74
2023/06/15 11:03:51;;;;;;;3.50;2.77;;;;;;;24.19;37.62;101909.94;5032913;28;20244;-74
2023/06/15 11:06:18;;;;;;;3.27;2.93;;;;;;;24.29;35.41;101905.81;5033152;28;20304;-74
2023/06/15 11:08:49;;;;;;;3.07;2.87;;;;;;;24.39;36.59;101944.41;5032974;28;20222;-75
2023/06/15 11:11:19;;;;;;;2.90;2.60;;;;;;;24.47;36.71;101935.16;5032585;28;20206;-75
2023/06/15 11:14:02;;;;;;;3.00;2.80;;;;;;;24.26;33.27;101964.72;5032762;28;20210;-74
2023/06/15 11:16:32;;;;;;;2.93;2.73;;;;;;;24.39;34.63;102027.16;5033489;28;20567;-74
2023/06/15 11:19:00;;;;;;;3.03;2.70;;;;;;;24.50;36.00;102028.41;5033130;28;20233;-75
2023/06/15 11:21:30;;;;;;;3.30;2.80;;;;;;;24.46;35.46;102002.81;5033125;28;20206;-75
2023/06/15 11:23:57;;;;;;;3.50;3.20;;;;;;;24.45;34.63;102009.13;5032930;28;20301;-75
2023/06/15 11:26:27;;;;;;;4.27;3.13;;;;;;;24.55;35.15;102032.59;5032854;28;20580;-75
2023/06/15 11:28:57;;;;;;;2.77;2.50;;;;;;;24.73;34.77;102024.56;5032864;28;20233;-74